메인 페이지
METAR-TAF:

METAR-TAF

공항 :

Tyndall Air Force Base

패너마시티, 플로리다, 미국

위도: 30-04N, 경도: 085-35W, 고도: 5m

현재 날씨관측

예보는 15분 전, 00:56시(UTC)에 발표되었습니다.
동남동4kt
온도 26°C
습도 89%
기압 1016 hPa
시정: 16.1km
고도 18000ft 상공 구름 조금
고도 23000ft 상공 구름 보통
약한이슬비

METAR: KPAM 150056Z AUTO 11004KT 10SM -DZ FEW180 SCT230 26/24 A3000 RMK AO2 DZB21E24RAB24E41DZB41E47DZB52 SLP162 P0000 T02580238 $

시각: 20:11 (01:11 UTC)

예보

예보는 1 시간 51분 전, 23:20시(UTC)에 발표되었습니다.
예보 대상 시간: 14일 23시부터 15일 24시까지 (UTC)
남서6kt
시정 10km 이상
고도 2000ft 상공 구름 보통
고도 15000ft 상공 구름 많음
일시적
14일 23시부터 15일 01시까지 (UTC)
여러 방향의 바람 10kt, 순간 최대 풍속 15kt
시정: 4800m
고도 3000ft 상공 구름 많음, 적란운.
뇌우, 약한비
전환 중
15일 00시부터 15일 01시까지 (UTC)
남서6kt
시정 10km 이상
고도 1000ft 상공 구름 보통
고도 15000ft 상공 구름 많음
전환 중
15일 15시부터 15일 16시까지 (UTC)
여러 방향의 바람 6kt
시정: 8000m
고도 3000ft 상공 구름 보통
약한소나기
일시적
15일 18시부터 15일 23시까지 (UTC)
남남동10kt, 순간 최대 풍속 15kt
시정: 4800m
고도 3000ft 상공 구름 많음, 적란운.
뇌우, 약한비

TAF: KPAM 142320Z 1423/1524 22006KT 9999 SCT020 BKN150 QNH2999INS TEMPO 1423/1501 VRB10G15KT 4800 -TSRA BKN030CB BECMG 1500/1501 22006KT 9999 SCT010 BKN150 QNH3000INS BECMG 1515/1516 VRB06KT 8000 -SHRA SCT030 QNH3007INS TEMPO 1518/1523 16010G15KT 4800 -TSRA BKN030CB TX33/1517Z TN23/1512Z

4,000개 이상의 공항 관측 자료 및 예보 (METAR 및 TAF 보고).

지도상에서 검색 가능한 기상관측소가 노란 점과 빨간 점으로 표시되어 있습니다.

기상관측소 명을 보려면 표시 위로 마우스를 이동하세요.

날씨 관측과 예보를 보려면 클릭하세요.

지도 변경 : 확대하려면 엑스 표시가 있는 녹색 버튼, 축소하려면 빼기 표시가 있는 녹색 버튼, 다음 페이지의 지도를 보려면 녹색 화살표를 클릭하세요.


METAR-TAF: